Time;durP1;ratioP1;P1;durP2;ratioP2;P2;SDS_P1;SDS_P2;PMS_P1;PMS_P2;Temp;Humidity;BMP_temperature;BMP_pressure;BME280_temperature;BME280_humidity;BME280_pressure;Samples;Min_cycle;Max_cycle;Signal;HPM_P1;HPM_P2
2023/08/28 00:02:19;;;;;;;;;1.33;0.33;;;;;20.43;65.62;100673.50;5058648;28;45482;-75
2023/08/28 00:04:45;;;;;;;;;0.00;0.00;;;;;20.25;66.35;100642.72;5055834;28;45307;-75
2023/08/28 00:07:11;;;;;;;;;0.00;0.00;;;;;20.40;65.47;100674.44;5060651;28;46395;-75
2023/08/28 00:09:36;;;;;;;;;0.33;0.33;;;;;20.37;65.57;100665.59;5073267;28;45847;-75
2023/08/28 00:12:02;;;;;;;;;0.67;0.67;;;;;20.37;65.98;100668.25;5059348;28;45172;-74
2023/08/28 00:14:28;;;;;;;;;1.67;0.67;;;;;20.47;65.80;100672.59;5076958;28;45360;-74
2023/08/28 00:16:54;;;;;;;;;1.67;1.00;;;;;20.49;65.70;100675.25;5069749;28;46032;-74
2023/08/28 00:19:20;;;;;;;;;0.67;0.67;;;;;20.53;65.92;100684.94;5059020;28;45666;-75
2023/08/28 00:21:47;;;;;;;;;1.00;0.67;;;;;20.54;65.74;100684.06;5041050;28;45497;-74
2023/08/28 00:24:12;;;;;;;;;1.33;0.67;;;;;20.41;65.90;100660.28;5059176;28;45440;-75
2023/08/28 00:26:38;;;;;;;;;1.33;0.67;;;;;20.40;66.60;100663.81;5059090;28;45309;-75
2023/08/28 00:29:03;;;;;;;;;0.67;0.67;;;;;20.33;66.44;100648.84;5061283;28;45399;-75
2023/08/28 00:31:29;;;;;;;;;1.00;0.67;;;;;20.36;66.41;100656.78;5071709;28;45374;-74
2023/08/28 00:33:55;;;;;;;;;1.00;0.33;;;;;20.35;66.38;100668.31;5051198;28;45402;-75
2023/08/28 00:36:20;;;;;;;;;0.67;0.67;;;;;20.29;66.28;100652.41;5062812;27;46782;-75
2023/08/28 00:38:46;;;;;;;;;2.00;0.67;;;;;19.94;66.47;100595.25;5058718;28;45450;-75
2023/08/28 00:41:12;;;;;;;;;0.33;0.00;;;;;20.20;65.95;100633.94;5041142;28;45340;-74
2023/08/28 00:43:38;;;;;;;;;0.33;0.00;;;;;20.23;65.78;100642.75;5057725;28;45689;-74
2023/08/28 00:46:05;;;;;;;;;0.00;0.00;;;;;20.16;67.08;100650.75;5058385;28;45673;-74
2023/08/28 00:48:31;;;;;;;;;0.00;0.00;;;;;20.13;66.98;100640.16;5055532;28;45602;-74
2023/08/28 00:50:58;;;;;;;;;2.00;1.00;;;;;20.08;67.25;100645.50;5064910;28;45634;-74
2023/08/28 00:53:23;;;;;;;;;1.33;0.00;;;;;20.09;67.15;100649.91;5068106;28;45347;-74
2023/08/28 00:55:50;;;;;;;;;1.33;0.00;;;;;20.16;67.43;100659.59;5071551;28;45390;-74
2023/08/28 00:58:16;;;;;;;;;1.00;1.00;;;;;20.23;67.43;100660.41;5060171;28;45613;-74
2023/08/28 01:00:42;;;;;;;;;0.33;0.33;;;;;20.28;67.01;100658.63;5065605;28;45557;-74
2023/08/28 01:03:08;;;;;;;;;0.00;0.00;;;;;20.19;66.73;100643.66;5068165;28;45359;-76
2023/08/28 01:06:10;;;;;;;;;1.00;0.00;;;;;20.30;65.67;100651.53;5064296;28;45477;-74
2023/08/28 01:08:54;;;;;;;;;0.67;0.00;;;;;20.25;66.24;100646.28;5043168;28;45541;-75
2023/08/28 01:11:25;;;;;;;;;0.33;0.00;;;;;20.23;66.30;100641.84;5053802;28;46494;-74
2023/08/28 01:13:56;;;;;;;;;0.00;0.00;;;;;20.20;65.87;100644.53;5060605;28;45425;-75
2023/08/28 01:16:26;;;;;;;;;0.00;0.00;;;;;20.27;65.25;100635.63;5057018;28;47997;-75
2023/08/28 01:18:52;;;;;;;;;1.00;0.00;;;;;20.27;64.51;100620.59;5040247;28;45421;-75
2023/08/28 01:21:19;;;;;;;;;1.00;0.67;;;;;20.34;64.32;100626.72;5056905;28;45650;-75
2023/08/28 01:24:12;;;;;;;;;0.00;0.00;;;;;20.40;63.58;100620.50;5058134;28;45568;-75
2023/08/28 01:26:38;;;;;;;;;0.00;0.00;;;;;20.26;64.64;100608.22;5037287;28;45528;-74
2023/08/28 01:29:03;;;;;;;;;0.33;0.00;;;;;20.19;64.59;100605.63;5057990;28;45399;-75
2023/08/28 01:31:29;;;;;;;;;0.67;0.67;;;;;20.40;65.41;100647.03;5040120;28;45438;-75
2023/08/28 01:33:55;;;;;;;;;2.00;1.00;;;;;20.30;66.64;100645.34;5053337;28;45628;-75
2023/08/28 01:36:48;;;;;;;;;0.33;0.33;;;;;20.06;67.86;100664.09;5075302;28;45519;-75
2023/08/28 01:39:24;;;;;;;;;0.67;0.00;;;;;19.71;68.38;100644.84;5051719;28;45344;-74
2023/08/28 01:41:52;;;;;;;;;1.00;0.67;;;;;19.70;68.88;100646.63;5072043;28;45538;-75
2023/08/28 01:44:21;;;;;;;;;0.00;0.00;;;;;19.82;67.52;100661.59;5061011;28;45487;-74
2023/08/28 01:46:47;;;;;;;;;0.67;0.67;;;;;19.73;68.12;100669.59;5071737;28;45614;-74
2023/08/28 01:49:13;;;;;;;;;0.67;0.67;;;;;19.76;67.93;100659.00;5067891;28;45339;-74
2023/08/28 01:51:39;;;;;;;;;1.00;0.67;;;;;19.77;67.56;100669.56;5063085;28;45485;-74
2023/08/28 01:54:04;;;;;;;;;0.00;0.00;;;;;19.67;67.38;100647.50;5073508;28;45464;-75
2023/08/28 01:56:30;;;;;;;;;0.67;0.00;;;;;19.74;66.22;100656.34;5045232;28;45514;-75
2023/08/28 01:58:57;;;;;;;;;0.67;0.00;;;;;19.50;67.47;100635.22;5067659;28;45309;-74
2023/08/28 02:01:25;;;;;;;;;0.00;0.00;;;;;19.42;66.46;100616.75;5062222;28;45227;-75
2023/08/28 02:03:51;;;;;;;;;0.67;0.67;;;;;19.31;66.92;100600.91;5056566;28;45326;-74
2023/08/28 02:06:17;;;;;;;;;1.00;0.33;;;;;19.41;67.65;100620.28;5057951;28;46011;-74
2023/08/28 02:08:43;;;;;;;;;0.67;0.00;;;;;19.41;66.70;100610.56;5057239;28;45232;-74
2023/08/28 02:11:09;;;;;;;;;0.67;0.00;;;;;19.37;66.07;100602.66;5064171;28;45738;-74
2023/08/28 02:13:35;;;;;;;;;1.00;0.00;;;;;19.44;66.32;100609.69;5057985;28;45415;-74
2023/08/28 02:16:02;;;;;;;;;2.00;0.00;;;;;19.44;66.87;100605.25;5057655;28;45439;-74
2023/08/28 02:18:28;;;;;;;;;1.00;1.00;;;;;19.56;66.60;100620.19;5057599;28;45467;-74
2023/08/28 02:20:54;;;;;;;;;0.00;0.00;;;;;19.61;67.16;100628.13;5057680;28;45479;-75
2023/08/28 02:23:20;;;;;;;;;2.00;0.00;;;;;19.52;67.54;100609.59;5039482;28;45597;-74
2023/08/28 02:25:47;;;;;;;;;0.00;0.00;;;;;19.62;66.60;100612.22;5068544;27;46136;-74
2023/08/28 02:28:13;;;;;;;;;0.00;0.00;;;;;19.66;66.59;100611.31;5086081;27;45587;-74
2023/08/28 02:30:39;;;;;;;;;0.33;0.33;;;;;19.56;68.70;100621.97;5067010;27;45541;-74
2023/08/28 02:33:05;;;;;;;;;1.00;1.00;;;;;19.57;68.00;100615.78;5070330;27;45547;-74
2023/08/28 02:35:31;;;;;;;;;1.00;1.00;;;;;19.49;67.49;100605.22;5070394;28;46443;-74
2023/08/28 02:37:57;;;;;;;;;1.00;1.00;;;;;19.48;67.22;100601.69;5067250;28;45462;-74
2023/08/28 02:40:24;;;;;;;;;1.33;0.00;;;;;19.52;67.28;100606.97;5067343;28;45435;-74
2023/08/28 02:42:50;;;;;;;;;2.00;0.67;;;;;19.58;67.38;100606.94;5065803;28;45561;-74
2023/08/28 02:45:15;;;;;;;;;0.67;0.67;;;;;19.50;67.77;100604.34;5067534;28;45646;-75
2023/08/28 02:47:41;;;;;;;;;0.00;0.00;;;;;19.61;67.57;100609.56;5066814;28;45570;-73
2023/08/28 02:50:07;;;;;;;;;1.33;1.00;;;;;19.58;68.37;100617.56;5067808;28;45564;-73
2023/08/28 02:52:33;;;;;;;;;0.00;0.00;;;;;19.44;67.26;100588.50;5058268;28;45637;-73
2023/08/28 02:54:59;;;;;;;;;0.67;0.67;;;;;19.51;67.58;100598.13;5066593;28;45375;-74
2023/08/28 02:57:25;;;;;;;;;0.67;0.00;;;;;19.56;67.60;100601.66;5064745;28;45462;-73
2023/08/28 02:59:50;;;;;;;;;1.00;0.00;;;;;19.48;68.19;100595.53;5060796;28;45482;-74
2023/08/28 03:02:16;;;;;;;;;0.00;0.00;;;;;19.43;67.75;100582.28;5081866;27;45473;-75
2023/08/28 03:04:45;;;;;;;;;0.00;0.00;;;;;19.41;68.82;100593.78;5054314;28;46183;-76
2023/08/28 03:07:10;;;;;;;;;1.33;0.67;;;;;19.37;68.42;100603.50;5065032;28;45362;-74
2023/08/28 03:09:37;;;;;;;;;1.00;1.00;;;;;19.41;69.78;100638.81;5057447;28;45414;-73
2023/08/28 03:12:03;;;;;;;;;0.33;0.33;;;;;19.15;69.97;100618.63;5056009;28;45565;-74
2023/08/28 03:14:29;;;;;;;;;1.00;1.00;;;;;19.26;70.33;100618.59;5045110;28;46863;-74
2023/08/28 03:16:55;;;;;;;;;1.00;1.00;;;;;19.30;69.64;100612.41;5064031;28;45457;-74
2023/08/28 03:19:21;;;;;;;;;1.00;1.00;;;;;19.35;69.32;100596.47;5062518;28;45387;-74
2023/08/28 03:21:46;;;;;;;;;3.00;0.00;;;;;19.48;68.41;100608.78;5044044;28;45707;-75
2023/08/28 03:24:12;;;;;;;;;1.00;1.00;;;;;19.44;69.06;100591.13;5065555;28;45918;-73
2023/08/28 03:26:38;;;;;;;;;1.00;0.00;;;;;19.45;69.00;100590.22;5066012;28;46310;-74
2023/08/28 03:29:04;;;;;;;;;3.00;1.00;;;;;19.48;68.88;100593.75;5061569;28;45420;-74
2023/08/28 03:31:30;;;;;;;;;1.00;1.00;;;;;19.53;68.34;100595.50;5060317;28;45702;-75
2023/08/28 03:33:56;;;;;;;;;2.00;0.00;;;;;19.57;68.44;100583.97;5046616;28;46822;-74
2023/08/28 03:36:22;;;;;;;;;1.00;1.00;;;;;19.58;68.59;100597.22;5066248;28;45350;-75
2023/08/28 03:38:47;;;;;;;;;2.00;1.00;;;;;19.61;68.54;100593.66;5059315;28;45925;-73
2023/08/28 03:41:13;;;;;;;;;0.00;0.00;;;;;19.64;68.88;100596.31;5061912;28;45424;-74
2023/08/28 03:43:39;;;;;;;;;2.00;0.00;;;;;19.68;68.56;100590.09;5075625;28;46005;-75
2023/08/28 03:46:04;;;;;;;;;1.00;0.00;;;;;19.59;68.50;100592.78;5057932;28;45508;-75
2023/08/28 03:48:30;;;;;;;;;1.33;1.00;;;;;19.61;68.69;100585.72;5075270;27;45575;-74
2023/08/28 03:50:55;;;;;;;;;0.67;0.00;;;;;19.70;68.08;100590.09;5065030;28;45474;-77
2023/08/28 03:53:21;;;;;;;;;1.00;0.00;;;;;19.80;67.87;100598.00;5061641;28;46219;-79
2023/08/28 03:55:47;;;;;;;;;0.67;0.67;;;;;19.84;67.39;100593.56;5066515;28;46199;-74
2023/08/28 03:58:13;;;;;;;;;0.67;0.67;;;;;19.84;68.12;100575.00;5061822;28;45497;-74
2023/08/28 04:00:39;;;;;;;;;0.33;0.00;;;;;19.81;67.87;100565.28;5059116;28;45578;-73
2023/08/28 04:03:05;;;;;;;;;0.00;0.00;;;;;19.76;68.29;100568.88;5047122;28;46956;-74
2023/08/28 04:05:35;;;;;;;;;0.00;0.00;;;;;19.76;68.87;100572.41;5049339;28;45436;-74
2023/08/28 04:08:01;;;;;;;;;0.00;0.00;;;;;19.78;68.54;100567.97;5064198;28;45525;-74
2023/08/28 04:10:27;;;;;;;;;1.00;0.00;;;;;19.72;68.39;100554.75;5073410;28;45652;-73
2023/08/28 04:12:53;;;;;;;;;0.00;0.00;;;;;19.74;68.65;100560.06;5060837;28;45249;-74
2023/08/28 04:15:19;;;;;;;;;0.00;0.00;;;;;19.76;68.92;100552.97;5062236;28;45770;-74
2023/08/28 04:17:45;;;;;;;;;1.67;0.00;;;;;19.75;68.86;100545.91;5051030;28;45599;-74
2023/08/28 04:20:14;;;;;;;;;0.33;0.33;;;;;19.82;68.64;100558.22;5043926;28;45436;-74
2023/08/28 04:22:46;;;;;;;;;1.00;0.67;;;;;19.78;69.51;100549.41;5055328;28;45674;-75
2023/08/28 04:25:13;;;;;;;;;2.67;0.67;;;;;19.86;69.44;100566.13;5062601;27;45612;-75
2023/08/28 04:27:40;;;;;;;;;2.67;2.33;;;;;19.93;69.89;100576.69;5041212;28;45359;-75
2023/08/28 04:30:07;;;;;;;;;1.33;1.33;;;;;19.93;69.75;100574.91;5061845;28;45511;-75
2023/08/28 04:32:33;;;;;;;;;1.33;1.00;;;;;19.95;70.11;100564.28;5076202;28;45947;-74
2023/08/28 04:34:59;;;;;;;;;1.33;0.67;;;;;19.98;69.32;100567.81;5078465;28;45821;-74
2023/08/28 04:37:26;;;;;;;;;0.00;0.00;;;;;20.02;69.25;100576.63;5076084;28;45436;-74
2023/08/28 04:39:52;;;;;;;;;0.33;0.00;;;;;20.03;69.48;100567.75;5075499;28;45524;-74
2023/08/28 04:42:17;;;;;;;;;2.00;0.33;;;;;20.03;68.67;100566.00;5052034;28;45559;-74
2023/08/28 04:44:43;;;;;;;;;0.00;0.00;;;;;20.02;69.31;100556.28;5071801;28;45431;-74
2023/08/28 04:47:09;;;;;;;;;1.33;0.67;;;;;20.06;69.08;100560.66;5063348;27;45574;-74
2023/08/28 04:49:35;;;;;;;;;0.00;0.00;;;;;20.05;69.28;100561.56;5054420;28;45529;-74
2023/08/28 04:52:02;;;;;;;;;2.00;0.67;;;;;20.03;69.87;100555.41;5047240;28;45760;-73
2023/08/28 04:54:28;;;;;;;;;1.67;0.00;;;;;20.04;70.32;100558.94;5077307;28;45312;-74
2023/08/28 04:56:54;;;;;;;;;0.33;0.33;;;;;20.04;70.26;100559.78;5063058;28;45351;-74
2023/08/28 04:59:19;;;;;;;;;0.33;0.00;;;;;20.05;69.92;100558.00;5060765;28;45538;-74
2023/08/28 05:01:45;;;;;;;;;1.67;1.33;;;;;20.09;69.89;100556.22;5063666;28;46203;-74
2023/08/28 05:04:10;;;;;;;;;0.67;0.67;;;;;20.02;70.01;100529.75;5058474;28;45501;-74
2023/08/28 05:06:36;;;;;;;;;0.33;0.33;;;;;20.04;70.19;100530.63;5058734;28;45588;-74
2023/08/28 05:09:02;;;;;;;;;1.00;0.33;;;;;20.10;70.32;100535.00;5058275;28;45513;-74
2023/08/28 05:11:27;;;;;;;;;0.67;0.67;;;;;20.09;71.11;100538.53;5058853;28;45572;-75
2023/08/28 05:13:53;;;;;;;;;1.33;0.67;;;;;20.04;70.99;100543.00;5064670;28;45480;-74
2023/08/28 05:16:19;;;;;;;;;13.00;11.67;;;;;20.08;71.27;100547.41;5064280;28;45682;-74
2023/08/28 05:18:45;;;;;;;;;3.67;2.67;;;;;20.18;71.01;100556.16;5073327;28;45572;-74
2023/08/28 05:21:10;;;;;;;;;1.67;0.00;;;;;20.20;70.48;100549.94;5077058;28;45596;-75
2023/08/28 05:23:36;;;;;;;;;2.00;0.67;;;;;20.21;70.73;100559.66;5067768;28;45372;-75
2023/08/28 05:26:02;;;;;;;;;1.00;0.00;;;;;20.00;70.51;100547.47;5058681;28;45489;-75
2023/08/28 05:28:31;;;;;;;;;2.33;1.33;;;;;19.90;71.14;100551.09;5070151;28;45575;-75
2023/08/28 05:30:57;;;;;;;;;3.00;0.33;;;;;19.98;71.42;100553.69;5051499;28;46290;-74
2023/08/28 05:33:22;;;;;;;;;0.00;0.00;;;;;20.00;71.32;100558.06;5053415;27;45413;-75
2023/08/28 05:35:49;;;;;;;;;0.33;0.00;;;;;20.05;70.67;100565.97;5073491;27;45507;-75
2023/08/28 05:38:15;;;;;;;;;0.33;0.33;;;;;20.03;71.05;100551.84;5060402;28;45335;-76
2023/08/28 05:40:40;;;;;;;;;1.00;0.00;;;;;20.04;71.13;100558.94;5053696;28;47105;-75
2023/08/28 05:43:06;;;;;;;;;2.33;0.00;;;;;20.14;71.12;100573.84;5057981;28;45383;-75
2023/08/28 05:45:32;;;;;;;;;0.33;0.00;;;;;20.14;70.51;100562.38;5071776;28;45349;-75
2023/08/28 05:47:57;;;;;;;;;0.00;0.00;;;;;20.10;70.49;100547.38;5042125;28;45497;-75
2023/08/28 05:50:23;;;;;;;;;0.33;0.33;;;;;20.19;70.72;100541.97;5062112;27;45515;-75
2023/08/28 05:52:49;;;;;;;;;1.00;1.00;;;;;20.20;70.34;100546.41;5068450;28;45825;-75
2023/08/28 05:55:14;;;;;;;;;1.33;0.00;;;;;20.19;70.38;100541.97;5057934;28;45344;-75
2023/08/28 05:57:41;;;;;;;;;2.67;0.67;;;;;20.23;70.79;100533.09;5057786;28;45551;-75
2023/08/28 06:00:13;;;;;;;;;0.33;0.33;;;;;20.20;70.93;100533.16;5056881;28;45296;-75
2023/08/28 06:02:39;;;;;;;;;1.67;0.67;;;;;20.24;71.04;100518.94;5057561;28;45379;-74
2023/08/28 06:05:06;;;;;;;;;0.00;0.00;;;;;20.31;70.73;100515.31;5039609;28;45535;-75
2023/08/28 06:07:32;;;;;;;;;0.33;0.00;;;;;20.48;70.20;100528.41;5073599;28;45385;-74
2023/08/28 06:09:57;;;;;;;;;1.33;0.00;;;;;20.54;70.46;100527.47;5062180;28;45995;-74
2023/08/28 06:12:24;;;;;;;;;0.33;0.00;;;;;20.52;70.20;100519.53;5067830;28;45502;-75
2023/08/28 06:14:50;;;;;;;;;1.00;0.67;;;;;20.58;70.65;100546.00;5070957;28;45437;-74
2023/08/28 06:17:16;;;;;;;;;0.00;0.00;;;;;20.41;70.74;100530.28;5060398;28;45373;-75
2023/08/28 06:19:44;;;;;;;;;0.67;0.67;;;;;20.47;71.15;100547.88;5076050;27;45390;-75
2023/08/28 06:22:10;;;;;;;;;0.00;0.00;;;;;20.38;71.88;100545.34;5066554;28;45398;-75
2023/08/28 06:24:35;;;;;;;;;0.00;0.00;;;;;20.55;71.08;100559.31;5051948;28;45503;-75
2023/08/28 06:27:02;;;;;;;;;0.33;0.33;;;;;20.53;70.82;100561.09;5061012;28;45444;-75
2023/08/28 06:29:27;;;;;;;;;0.67;0.00;;;;;20.49;70.91;100547.88;5070866;28;45984;-75
2023/08/28 06:31:53;;;;;;;;;0.00;0.00;;;;;20.57;70.26;100532.72;5038781;28;45439;-75
2023/08/28 06:34:19;;;;;;;;;1.67;0.33;;;;;20.62;70.56;100550.41;5069812;28;45451;-75
2023/08/28 06:36:45;;;;;;;;;0.00;0.00;;;;;20.68;70.55;100551.25;5060283;28;45424;-74
2023/08/28 06:39:12;;;;;;;;;0.67;0.00;;;;;20.69;70.06;100531.75;5039113;28;47400;-75
2023/08/28 06:41:38;;;;;;;;;0.00;0.00;;;;;20.80;70.43;100537.81;5038706;28;45492;-75
2023/08/28 06:44:07;;;;;;;;;0.00;0.00;;;;;20.80;70.12;100525.41;5069553;28;45334;-74
2023/08/28 06:46:33;;;;;;;;;0.00;0.00;;;;;20.69;71.05;100524.69;5074844;28;45555;-74
2023/08/28 06:48:59;;;;;;;;;2.33;2.00;;;;;20.85;70.60;100536.88;5059903;28;45358;-75
2023/08/28 06:51:24;;;;;;;;;0.00;0.00;;;;;20.94;70.36;100538.50;5067995;27;45483;-75
2023/08/28 06:53:51;;;;;;;;;0.00;0.00;;;;;20.70;71.77;100529.09;5058988;27;45417;-75
2023/08/28 06:56:17;;;;;;;;;0.00;0.00;;;;;20.77;71.52;100536.09;5045862;27;45307;-74
2023/08/28 06:58:43;;;;;;;;;0.00;0.00;;;;;20.90;71.18;100539.47;5043163;28;45607;-74
2023/08/28 07:01:08;;;;;;;;;0.00;0.00;;;;;20.99;71.45;100547.31;5048626;28;45502;-74
2023/08/28 07:03:35;;;;;;;;;0.00;0.00;;;;;20.97;71.19;100524.31;5063047;28;45536;-75
2023/08/28 07:06:00;;;;;;;;;0.00;0.00;;;;;21.19;70.66;100543.53;5042681;28;45423;-75
2023/08/28 07:08:26;;;;;;;;;0.33;0.00;;;;;21.11;69.61;100535.66;5061055;28;45528;-75
2023/08/28 07:10:51;;;;;;;;;0.33;0.00;;;;;21.25;70.38;100540.78;5053363;28;45442;-75
2023/08/28 07:13:17;;;;;;;;;0.00;0.00;;;;;21.52;69.38;100541.28;5062383;28;45482;-76
2023/08/28 07:15:43;;;;;;;;;2.00;0.00;;;;;21.72;68.66;100539.19;5058465;28;45389;-75
2023/08/28 07:18:08;;;;;;;;;0.00;0.00;;;;;21.70;68.58;100532.16;5056753;28;45296;-75
2023/08/28 07:20:35;;;;;;;;;0.00;0.00;;;;;21.57;68.13;100532.34;5038552;28;45511;-76
2023/08/28 07:23:00;;;;;;;;;0.33;0.00;;;;;21.60;68.71;100531.41;5056088;28;45557;-74
2023/08/28 07:25:27;;;;;;;;;2.33;1.00;;;;;21.72;69.29;100531.22;5066063;27;45537;-74
2023/08/28 07:27:54;;;;;;;;;0.67;0.00;;;;;21.84;68.53;100519.50;5081754;27;45367;-75
2023/08/28 07:30:20;;;;;;;;;0.00;0.00;;;;;21.92;68.15;100522.91;5074626;27;45644;-74
2023/08/28 07:32:45;;;;;;;;;0.33;0.33;;;;;22.01;67.84;100517.44;5061019;27;45649;-74
2023/08/28 07:35:11;;;;;;;;;0.67;0.00;;;;;22.25;67.27;100533.91;5065973;27;45491;-75
2023/08/28 07:37:37;;;;;;;;;0.67;0.67;;;;;22.45;67.41;100536.19;5052421;28;45511;-74
2023/08/28 07:40:06;;;;;;;;;0.00;0.00;;;;;22.65;66.24;100525.13;5082412;27;45539;-74
2023/08/28 07:42:37;;;;;;;;;0.00;0.00;;;;;22.60;65.85;100503.03;5079436;27;45521;-73
2023/08/28 07:45:04;;;;;;;;;1.00;0.00;;;;;22.75;66.03;100533.81;5073773;27;45442;-74
2023/08/28 07:47:29;;;;;;;;;0.00;0.00;;;;;22.77;66.53;100522.22;5060561;27;45978;-73
2023/08/28 07:49:55;;;;;;;;;1.00;0.00;;;;;22.91;65.48;100523.72;5064471;27;46066;-74
2023/08/28 07:52:21;;;;;;;;;2.00;1.00;;;;;23.19;65.05;100526.69;5084423;27;45386;-76
2023/08/28 07:54:47;;;;;;;;;0.67;0.00;;;;;23.57;63.67;100539.13;5061759;27;45488;-78
2023/08/28 07:57:12;;;;;;;;;1.00;0.67;;;;;23.82;63.10;100533.25;5067334;27;45463;-73
2023/08/28 07:59:39;;;;;;;;;0.00;0.00;;;;;23.94;61.84;100521.38;5083755;27;45449;-74
2023/08/28 08:02:04;;;;;;;;;1.00;0.00;;;;;24.10;62.31;100524.53;5051848;27;45732;-75
2023/08/28 08:04:31;;;;;;;;;0.00;0.00;;;;;23.98;62.43;100510.59;5064332;27;45305;-75
2023/08/28 08:06:56;;;;;;;;;0.67;0.00;;;;;23.72;63.05;100500.56;5083527;27;45755;-79
2023/08/28 08:09:22;;;;;;;;;0.00;0.00;;;;;23.77;63.29;100524.44;5067168;28;45386;-76
2023/08/28 08:11:48;;;;;;;;;0.00;0.00;;;;;23.58;63.51;100532.03;5054403;27;45617;-78
2023/08/28 08:14:14;;;;;;;;;2.00;0.67;;;;;23.27;64.88;100515.88;5060835;27;45493;-76
2023/08/28 08:16:39;;;;;;;;;0.67;0.00;;;;;23.60;64.51;100541.72;5047229;27;48138;-75
2023/08/28 08:19:05;;;;;;;;;0.00;0.00;;;;;23.67;63.13;100522.91;5083034;27;45326;-75
2023/08/28 08:21:31;;;;;;;;;0.00;0.00;;;;;23.92;63.21;100513.41;5082874;27;45314;-76
2023/08/28 08:23:56;;;;;;;;;0.00;0.00;;;;;24.08;62.26;100524.56;5069153;27;45582;-77
2023/08/28 08:26:22;;;;;;;;;1.00;0.00;;;;;23.96;63.04;100530.22;5056863;28;45489;-76
2023/08/28 08:28:49;;;;;;;;;1.00;0.00;;;;;23.82;62.91;100503.91;5071622;27;45517;-77
2023/08/28 08:31:14;;;;;;;;;0.00;0.00;;;;;24.01;62.37;100518.53;5060277;27;45565;-75
2023/08/28 08:33:40;;;;;;;;;1.00;0.00;;;;;24.35;61.99;100522.97;5063311;28;45422;-76
2023/08/28 08:36:06;;;;;;;;;1.00;0.00;;;;;24.55;60.66;100516.19;5070232;28;46080;-76
2023/08/28 08:38:31;;;;;;;;;0.00;0.00;;;;;24.54;60.96;100542.03;5052501;28;45292;-76
2023/08/28 08:40:58;;;;;;;;;1.00;0.00;;;;;24.59;60.96;100533.88;5062360;28;45508;-76
2023/08/28 08:43:25;;;;;;;;;0.33;0.00;;;;;24.16;60.70;100521.69;5074522;28;45556;-76
2023/08/28 08:45:58;;;;;;;;;1.00;0.00;;;;;24.89;60.59;100540.16;5066605;28;45504;-75
2023/08/28 08:48:25;;;;;;;;;1.00;0.00;;;;;26.75;57.55;100528.69;5065340;28;45456;-76
2023/08/28 08:51:00;;;;;;;;;0.00;0.00;;;;;27.67;54.81;100537.63;5074074;28;45492;-76
2023/08/28 08:53:35;;;;;;;;;1.67;0.67;;;;;27.92;52.94;100525.94;5064779;28;45244;-76
2023/08/28 08:56:05;;;;;;;;;2.33;2.33;;;;;27.82;52.32;100533.47;5077101;27;45621;-76
2023/08/28 08:58:33;;;;;;;;;0.33;0.33;;;;;27.49;53.19;100530.34;5062545;28;45363;-76
2023/08/28 09:01:00;;;;;;;;;1.00;1.00;;;;;27.17;54.12;100529.78;5058500;28;45359;-77
2023/08/28 09:03:26;;;;;;;;;1.00;0.00;;;;;26.82;54.11;100539.19;5065852;28;45373;-77
2023/08/28 09:05:53;;;;;;;;;0.33;0.00;;;;;26.52;54.47;100536.66;5065514;28;46294;-76
2023/08/28 09:08:24;;;;;;;;;2.00;1.00;;;;;26.07;54.13;100538.25;5057707;28;45377;-75
2023/08/28 09:10:50;;;;;;;;;0.00;0.00;;;;;26.15;55.63;100535.31;5062159;28;47086;-76
2023/08/28 09:13:16;;;;;;;;;0.67;0.33;;;;;26.20;55.58;100554.75;5069083;28;45338;-76
2023/08/28 09:15:41;;;;;;;;;0.33;0.00;;;;;26.21;55.84;100556.53;5070564;28;45497;-76
2023/08/28 09:18:07;;;;;;;;;0.00;0.00;;;;;26.48;55.37;100535.03;5061163;28;45416;-76
2023/08/28 09:20:34;;;;;;;;;1.67;1.00;;;;;26.58;55.01;100555.22;5073882;28;45355;-76
2023/08/28 09:23:00;;;;;;;;;0.00;0.00;;;;;27.27;54.79;100549.13;5059205;27;45533;-77
2023/08/28 09:25:26;;;;;;;;;0.67;0.67;;;;;27.43;53.24;100546.69;5059837;28;46075;-76
2023/08/28 09:27:54;;;;;;;;;0.67;0.67;;;;;27.36;53.61;100544.25;5061666;28;45403;-78
2023/08/28 09:30:31;;;;;;;;;0.00;0.00;;;;;27.03;53.78;100546.41;5058497;28;45454;-77
2023/08/28 09:32:59;;;;;;;;;2.00;1.00;;;;;26.67;54.20;100549.53;5057831;28;45606;-76
2023/08/28 09:35:28;;;;;;;;;1.00;0.00;;;;;27.38;53.81;100550.44;5057790;28;46580;-76
2023/08/28 09:37:59;;;;;;;;;0.33;0.00;;;;;28.91;48.42;100534.09;5057442;28;45268;-78
2023/08/28 09:40:36;;;;;;;;;1.00;0.67;;;;;29.00;48.81;100524.69;5040205;28;45459;-77
2023/08/28 09:43:12;;;;;;;;;0.00;0.00;;;;;29.21;49.10;100539.00;5058191;28;45481;-76
2023/08/28 09:45:39;;;;;;;;;0.00;0.00;;;;;28.05;50.41;100523.56;5039370;28;46811;-76
2023/08/28 09:48:06;;;;;;;;;1.33;1.00;;;;;27.91;51.37;100543.84;5057720;28;45426;-79
2023/08/28 09:50:34;;;;;;;;;0.33;0.00;;;;;27.97;50.70;100542.69;5039275;28;45556;-76
2023/08/28 09:53:09;;;;;;;;;0.33;0.33;;;;;28.82;48.92;100533.63;5043840;28;45375;-76
2023/08/28 09:55:51;;;;;;;;;0.00;0.00;;;;;30.12;47.31;100545.28;5067736;27;46241;-76
2023/08/28 09:58:17;;;;;;;;;1.00;1.00;;;;;30.21;47.47;100555.59;5063746;28;45335;-76
2023/08/28 10:00:44;;;;;;;;;1.00;1.00;;;;;29.86;48.47;100528.63;5058233;28;45595;-76
2023/08/28 10:03:12;;;;;;;;;0.67;0.67;;;;;29.35;48.16;100541.88;5055857;28;45501;-76
2023/08/28 10:05:43;;;;;;;;;1.00;0.00;;;;;28.83;49.73;100528.19;5055742;28;46323;-77
2023/08/28 10:08:11;;;;;;;;;0.00;0.00;;;;;28.62;50.56;100551.53;5051464;28;45497;-77
2023/08/28 10:10:39;;;;;;;;;1.00;0.00;;;;;28.36;50.29;100542.78;5056723;28;45408;-76
2023/08/28 10:13:07;;;;;;;;;3.67;3.00;;;;;28.14;51.61;100531.25;5039303;28;45871;-76
2023/08/28 10:15:37;;;;;;;;;2.00;0.00;;;;;28.06;51.77;100536.94;5038489;28;47122;-76
2023/08/28 10:18:14;;;;;;;;;0.33;0.33;;;;;28.06;51.86;100528.03;5038213;28;45574;-76
2023/08/28 10:20:41;;;;;;;;;1.00;1.00;;;;;28.08;51.60;100513.59;5056442;28;45449;-76
2023/08/28 10:23:08;;;;;;;;;0.00;0.00;;;;;27.87;51.80;100515.34;5067949;28;45220;-76
2023/08/28 10:25:35;;;;;;;;;1.33;1.00;;;;;27.80;52.12;100507.63;5060572;28;45360;-76
2023/08/28 10:28:02;;;;;;;;;2.00;1.00;;;;;27.81;52.58;100522.78;5072132;28;45519;-76
2023/08/28 10:30:28;;;;;;;;;0.00;0.00;;;;;27.46;52.85;100507.22;5056206;28;45636;-76
2023/08/28 10:32:59;;;;;;;;;0.00;0.00;;;;;26.93;54.19;100511.03;5056677;28;45555;-76
2023/08/28 10:35:27;;;;;;;;;1.33;1.00;;;;;26.50;55.94;100542.09;5071501;28;45505;-78
2023/08/28 10:37:54;;;;;;;;;1.00;0.33;;;;;26.59;55.81;100532.88;5038667;28;45573;-76
2023/08/28 10:40:21;;;;;;;;;1.00;0.00;;;;;27.19;53.97;100534.16;5056613;28;45375;-76
2023/08/28 10:42:48;;;;;;;;;1.00;0.00;;;;;27.76;53.00;100545.31;5056114;28;45464;-76
2023/08/28 10:45:14;;;;;;;;;1.00;1.00;;;;;27.60;53.18;100540.66;5052307;28;46577;-76
2023/08/28 10:47:49;;;;;;;;;0.00;0.00;;;;;28.49;51.97;100540.44;5056046;28;45549;-76
2023/08/28 10:50:15;;;;;;;;;0.67;0.00;;;;;28.86;50.95;100544.16;5037985;28;45511;-76
2023/08/28 10:52:41;;;;;;;;;0.00;0.00;;;;;28.77;50.69;100547.28;5057155;28;45457;-76
2023/08/28 10:55:07;;;;;;;;;1.00;0.00;;;;;28.62;50.57;100527.34;5056742;28;46331;-77
2023/08/28 10:57:39;;;;;;;;;1.33;1.00;;;;;28.42;50.10;100530.91;5059996;28;45702;-76
2023/08/28 11:00:16;;;;;;;;;2.00;0.00;;;;;28.20;51.17;100535.47;5066201;28;45533;-76
2023/08/28 11:03:06;;;;;;;;;1.00;0.00;;;;;28.13;51.49;100540.22;5071333;28;45808;-76
2023/08/28 11:05:33;;;;;;;;;0.33;0.33;;;;;28.28;51.41;100523.44;5070188;28;45565;-76
2023/08/28 11:08:06;;;;;;;;;1.00;0.00;;;;;28.06;51.30;100534.25;5038354;28;45276;-76
2023/08/28 11:10:33;;;;;;;;;0.00;0.00;;;;;28.44;50.18;100526.31;5056506;28;45529;-75
2023/08/28 11:13:06;;;;;;;;;0.00;0.00;;;;;28.56;50.18;100519.56;5058998;28;45474;-76
2023/08/28 11:15:39;;;;;;;;;0.67;0.00;;;;;28.65;49.03;100540.66;5067386;28;45482;-76
2023/08/28 11:18:26;;;;;;;;;1.00;0.00;;;;;28.98;48.79;100525.72;5069138;28;45477;-76
2023/08/28 11:21:01;;;;;;;;;0.67;0.00;;;;;29.24;48.29;100532.59;5056234;28;45518;-76
2023/08/28 11:23:38;;;;;;;;;1.00;1.00;;;;;29.09;48.34;100518.91;5046988;28;45472;-76
2023/08/28 11:26:26;;;;;;;;;2.00;0.00;;;;;28.69;48.87;100523.44;5074509;28;46966;-76